sensor_id;sensor_type;location;lat;lon;timestamp;temperature;humidity
66610;DHT22;53468;48.276;14.416;2022-09-21T00:01:15;8.00;99.90
66610;DHT22;53468;48.276;14.416;2022-09-21T00:06:48;7.90;99.90
66610;DHT22;53468;48.276;14.416;2022-09-21T00:12:20;7.80;99.90
66610;DHT22;53468;48.276;14.416;2022-09-21T00:17:55;7.50;99.90
66610;DHT22;53468;48.276;14.416;2022-09-21T00:23:28;7.50;99.90
66610;DHT22;53468;48.276;14.416;2022-09-21T00:29:02;7.40;99.90
66610;DHT22;53468;48.276;14.416;2022-09-21T00:34:36;7.50;99.90
66610;DHT22;53468;48.276;14.416;2022-09-21T00:40:09;7.40;99.90
66610;DHT22;53468;48.276;14.416;2022-09-21T00:45:42;7.40;99.90
66610;DHT22;53468;48.276;14.416;2022-09-21T00:51:16;7.40;99.90
66610;DHT22;53468;48.276;14.416;2022-09-21T00:56:49;7.40;99.90
66610;DHT22;53468;48.276;14.416;2022-09-21T01:02:22;7.30;99.90
66610;DHT22;53468;48.276;14.416;2022-09-21T01:07:57;7.30;99.90
66610;DHT22;53468;48.276;14.416;2022-09-21T01:13:37;7.10;99.90
66610;DHT22;53468;48.276;14.416;2022-09-21T01:19:28;7.10;99.90
66610;DHT22;53468;48.276;14.416;2022-09-21T01:25:12;7.10;99.90
66610;DHT22;53468;48.276;14.416;2022-09-21T01:30:53;7.10;99.90
66610;DHT22;53468;48.276;14.416;2022-09-21T01:36:27;7.20;99.90
66610;DHT22;53468;48.276;14.416;2022-09-21T01:42:03;7.30;99.90
66610;DHT22;53468;48.276;14.416;2022-09-21T01:47:39;7.40;99.90
66610;DHT22;53468;48.276;14.416;2022-09-21T01:53:18;7.50;99.90
66610;DHT22;53468;48.276;14.416;2022-09-21T01:58:58;7.40;99.90
66610;DHT22;53468;48.276;14.416;2022-09-21T02:04:34;7.50;99.90
66610;DHT22;53468;48.276;14.416;2022-09-21T02:10:14;7.50;99.90
66610;DHT22;53468;48.276;14.416;2022-09-21T02:16:01;7.40;99.90
66610;DHT22;53468;48.276;14.416;2022-09-21T02:21:43;7.20;99.90
66610;DHT22;53468;48.276;14.416;2022-09-21T02:27:29;7.00;99.90
66610;DHT22;53468;48.276;14.416;2022-09-21T02:33:09;7.10;99.90
66610;DHT22;53468;48.276;14.416;2022-09-21T02:38:49;7.10;99.90
66610;DHT22;53468;48.276;14.416;2022-09-21T02:44:26;7.10;99.90
66610;DHT22;53468;48.276;14.416;2022-09-21T02:50:06;7.00;99.90
66610;DHT22;53468;48.276;14.416;2022-09-21T02:55:42;7.10;99.90
66610;DHT22;53468;48.276;14.416;2022-09-21T03:01:16;7.00;99.90
66610;DHT22;53468;48.276;14.416;2022-09-21T03:06:50;7.00;99.90
66610;DHT22;53468;48.276;14.416;2022-09-21T03:12:24;7.00;99.90
66610;DHT22;53468;48.276;14.416;2022-09-21T03:17:56;7.10;99.90
66610;DHT22;53468;48.276;14.416;2022-09-21T03:23:28;7.00;99.90
66610;DHT22;53468;48.276;14.416;2022-09-21T03:29:02;7.10;99.90
66610;DHT22;53468;48.276;14.416;2022-09-21T03:34:34;7.20;99.90
66610;DHT22;53468;48.276;14.416;2022-09-21T03:40:07;7.30;99.90
66610;DHT22;53468;48.276;14.416;2022-09-21T03:45:43;7.40;99.90
66610;DHT22;53468;48.276;14.416;2022-09-21T03:51:15;7.30;99.90
66610;DHT22;53468;48.276;14.416;2022-09-21T03:56:47;7.50;99.90
66610;DHT22;53468;48.276;14.416;2022-09-21T04:02:20;7.50;99.90
66610;DHT22;53468;48.276;14.416;2022-09-21T04:07:53;7.60;99.90
66610;DHT22;53468;48.276;14.416;2022-09-21T04:13:26;7.60;99.90
66610;DHT22;53468;48.276;14.416;2022-09-21T04:18:59;7.70;99.90
66610;DHT22;53468;48.276;14.416;2022-09-21T04:24:32;7.70;99.90
66610;DHT22;53468;48.276;14.416;2022-09-21T04:30:05;7.70;99.90
66610;DHT22;53468;48.276;14.416;2022-09-21T04:35:39;7.70;99.90
66610;DHT22;53468;48.276;14.416;2022-09-21T04:41:13;7.60;99.90
66610;DHT22;53468;48.276;14.416;2022-09-21T04:46:45;7.70;99.90
66610;DHT22;53468;48.276;14.416;2022-09-21T04:52:19;7.70;99.90
66610;DHT22;53468;48.276;14.416;2022-09-21T04:57:51;7.60;99.90
66610;DHT22;53468;48.276;14.416;2022-09-21T05:03:24;7.80;99.90
66610;DHT22;53468;48.276;14.416;2022-09-21T05:08:58;7.80;99.90
66610;DHT22;53468;48.276;14.416;2022-09-21T05:14:48;7.80;99.90
66610;DHT22;53468;48.276;14.416;2022-09-21T05:20:20;7.90;99.90
66610;DHT22;53468;48.276;14.416;2022-09-21T05:25:54;7.90;99.90
66610;DHT22;53468;48.276;14.416;2022-09-21T05:31:40;7.90;99.90
66610;DHT22;53468;48.276;14.416;2022-09-21T05:37:35;8.00;99.90
66610;DHT22;53468;48.276;14.416;2022-09-21T05:43:11;8.00;99.90
66610;DHT22;53468;48.276;14.416;2022-09-21T05:48:50;8.10;99.90
66610;DHT22;53468;48.276;14.416;2022-09-21T05:54:35;8.10;99.90
66610;DHT22;53468;48.276;14.416;2022-09-21T06:00:16;8.20;99.90
66610;DHT22;53468;48.276;14.416;2022-09-21T06:05:49;8.30;99.90
66610;DHT22;53468;48.276;14.416;2022-09-21T06:11:22;8.40;99.90
66610;DHT22;53468;48.276;14.416;2022-09-21T06:16:55;8.40;99.90
66610;DHT22;53468;48.276;14.416;2022-09-21T06:22:28;8.40;99.90
66610;DHT22;53468;48.276;14.416;2022-09-21T06:28:03;8.50;99.90
66610;DHT22;53468;48.276;14.416;2022-09-21T06:33:37;8.70;99.90
66610;DHT22;53468;48.276;14.416;2022-09-21T06:39:09;8.70;99.90
66610;DHT22;53468;48.276;14.416;2022-09-21T06:44:41;8.70;99.90
66610;DHT22;53468;48.276;14.416;2022-09-21T06:50:15;8.80;99.90
66610;DHT22;53468;48.276;14.416;2022-09-21T06:55:47;8.90;99.90
66610;DHT22;53468;48.276;14.416;2022-09-21T07:01:19;9.00;99.90
66610;DHT22;53468;48.276;14.416;2022-09-21T07:06:53;9.00;99.90
66610;DHT22;53468;48.276;14.416;2022-09-21T07:12:26;9.10;99.90
66610;DHT22;53468;48.276;14.416;2022-09-21T07:17:59;9.10;99.90
66610;DHT22;53468;48.276;14.416;2022-09-21T07:23:34;9.30;99.90
66610;DHT22;53468;48.276;14.416;2022-09-21T07:29:07;9.30;99.90
66610;DHT22;53468;48.276;14.416;2022-09-21T07:34:39;9.30;99.90
66610;DHT22;53468;48.276;14.416;2022-09-21T07:40:12;9.40;99.90
66610;DHT22;53468;48.276;14.416;2022-09-21T07:45:52;9.50;99.90
66610;DHT22;53468;48.276;14.416;2022-09-21T07:51:25;9.70;99.90
66610;DHT22;53468;48.276;14.416;2022-09-21T07:56:58;9.80;99.90
66610;DHT22;53468;48.276;14.416;2022-09-21T08:02:48;9.70;99.90
66610;DHT22;53468;48.276;14.416;2022-09-21T08:08:21;9.90;99.90
66610;DHT22;53468;48.276;14.416;2022-09-21T08:13:56;10.10;99.90
66610;DHT22;53468;48.276;14.416;2022-09-21T08:19:29;10.20;99.90
66610;DHT22;53468;48.276;14.416;2022-09-21T08:25:01;10.20;99.90
66610;DHT22;53468;48.276;14.416;2022-09-21T08:30:35;10.10;99.90
66610;DHT22;53468;48.276;14.416;2022-09-21T08:36:08;10.50;99.90
66610;DHT22;53468;48.276;14.416;2022-09-21T08:47:41;10.70;99.90
66610;DHT22;53468;48.276;14.416;2022-09-21T08:53:17;10.80;99.90
66610;DHT22;53468;48.276;14.416;2022-09-21T08:58:50;10.70;99.90
66610;DHT22;53468;48.276;14.416;2022-09-21T09:04:35;10.80;99.90
66610;DHT22;53468;48.276;14.416;2022-09-21T09:10:19;10.80;99.90
66610;DHT22;53468;48.276;14.416;2022-09-21T09:16:02;11.00;99.90
66610;DHT22;53468;48.276;14.416;2022-09-21T09:21:39;10.90;99.90
66610;DHT22;53468;48.276;14.416;2022-09-21T09:27:15;11.10;99.90
66610;DHT22;53468;48.276;14.416;2022-09-21T09:32:54;11.30;99.90
66610;DHT22;53468;48.276;14.416;2022-09-21T09:38:32;11.50;99.90
66610;DHT22;53468;48.276;14.416;2022-09-21T09:44:19;11.50;99.90
66610;DHT22;53468;48.276;14.416;2022-09-21T09:50:00;11.40;99.90
66610;DHT22;53468;48.276;14.416;2022-09-21T09:55:38;11.70;99.90
66610;DHT22;53468;48.276;14.416;2022-09-21T10:01:37;11.70;99.90
66610;DHT22;53468;48.276;14.416;2022-09-21T10:07:17;11.70;99.90
66610;DHT22;53468;48.276;14.416;2022-09-21T10:12:51;11.80;99.90
66610;DHT22;53468;48.276;14.416;2022-09-21T10:18:26;12.00;99.90
66610;DHT22;53468;48.276;14.416;2022-09-21T10:24:03;12.00;99.90
66610;DHT22;53468;48.276;14.416;2022-09-21T10:29:42;12.20;99.90
66610;DHT22;53468;48.276;14.416;2022-09-21T10:35:16;12.30;99.90
66610;DHT22;53468;48.276;14.416;2022-09-21T10:40:51;12.50;99.90
66610;DHT22;53468;48.276;14.416;2022-09-21T10:46:34;12.60;99.90
66610;DHT22;53468;48.276;14.416;2022-09-21T10:52:06;12.80;99.90
66610;DHT22;53468;48.276;14.416;2022-09-21T10:57:40;12.90;99.90
66610;DHT22;53468;48.276;14.416;2022-09-21T11:03:36;13.20;99.90
66610;DHT22;53468;48.276;14.416;2022-09-21T11:09:15;13.30;99.90
66610;DHT22;53468;48.276;14.416;2022-09-21T11:14:53;13.10;99.90
66610;DHT22;53468;48.276;14.416;2022-09-21T11:20:33;13.20;99.90
66610;DHT22;53468;48.276;14.416;2022-09-21T11:26:09;13.40;99.90
66610;DHT22;53468;48.276;14.416;2022-09-21T11:31:52;13.70;99.90
66610;DHT22;53468;48.276;14.416;2022-09-21T11:37:47;13.90;99.90
66610;DHT22;53468;48.276;14.416;2022-09-21T11:43:31;13.80;99.90
66610;DHT22;53468;48.276;14.416;2022-09-21T12:01:33;13.70;99.90
66610;DHT22;53468;48.276;14.416;2022-09-21T12:07:19;14.00;99.90
66610;DHT22;53468;48.276;14.416;2022-09-21T12:12:58;14.50;99.90
66610;DHT22;53468;48.276;14.416;2022-09-21T12:18:40;14.50;99.90
66610;DHT22;53468;48.276;14.416;2022-09-21T12:24:20;14.50;99.90
66610;DHT22;53468;48.276;14.416;2022-09-21T12:29:55;14.30;99.90
66610;DHT22;53468;48.276;14.416;2022-09-21T12:35:34;14.40;99.90
66610;DHT22;53468;48.276;14.416;2022-09-21T12:41:12;14.60;99.90
66610;DHT22;53468;48.276;14.416;2022-09-21T12:46:50;14.50;99.90
66610;DHT22;53468;48.276;14.416;2022-09-21T12:52:26;14.60;99.90
66610;DHT22;53468;48.276;14.416;2022-09-21T12:58:07;14.80;99.90
66610;DHT22;53468;48.276;14.416;2022-09-21T13:03:47;14.90;99.90
66610;DHT22;53468;48.276;14.416;2022-09-21T13:09:25;14.90;99.90
66610;DHT22;53468;48.276;14.416;2022-09-21T13:15:02;14.80;99.90
66610;DHT22;53468;48.276;14.416;2022-09-21T13:20:36;15.10;99.90
66610;DHT22;53468;48.276;14.416;2022-09-21T13:26:11;15.20;99.90
66610;DHT22;53468;48.276;14.416;2022-09-21T13:31:56;15.30;99.90
66610;DHT22;53468;48.276;14.416;2022-09-21T13:37:29;15.40;99.90
66610;DHT22;53468;48.276;14.416;2022-09-21T13:43:21;15.20;99.90
66610;DHT22;53468;48.276;14.416;2022-09-21T13:48:54;15.00;99.90
66610;DHT22;53468;48.276;14.416;2022-09-21T13:54:28;14.90;99.90
66610;DHT22;53468;48.276;14.416;2022-09-21T14:00:29;14.90;99.90
66610;DHT22;53468;48.276;14.416;2022-09-21T14:06:05;14.80;99.90
66610;DHT22;53468;48.276;14.416;2022-09-21T14:11:40;14.80;99.90
66610;DHT22;53468;48.276;14.416;2022-09-21T14:17:35;14.90;99.90
66610;DHT22;53468;48.276;14.416;2022-09-21T14:23:25;14.90;99.90
66610;DHT22;53468;48.276;14.416;2022-09-21T14:29:05;14.80;99.90
66610;DHT22;53468;48.276;14.416;2022-09-21T14:34:40;14.60;99.90
66610;DHT22;53468;48.276;14.416;2022-09-21T14:40:17;14.50;99.90
66610;DHT22;53468;48.276;14.416;2022-09-21T14:52:02;14.70;99.90
66610;DHT22;53468;48.276;14.416;2022-09-21T14:57:49;14.90;99.90
66610;DHT22;53468;48.276;14.416;2022-09-21T15:03:54;14.60;99.90
66610;DHT22;53468;48.276;14.416;2022-09-21T15:09:42;14.50;99.90
66610;DHT22;53468;48.276;14.416;2022-09-21T15:15:38;14.50;99.90
66610;DHT22;53468;48.276;14.416;2022-09-21T15:21:20;14.50;99.90
66610;DHT22;53468;48.276;14.416;2022-09-21T15:27:02;14.40;99.90
66610;DHT22;53468;48.276;14.416;2022-09-21T15:32:35;14.30;99.90
66610;DHT22;53468;48.276;14.416;2022-09-21T15:38:26;14.20;99.90
66610;DHT22;53468;48.276;14.416;2022-09-21T15:44:06;14.00;99.90
66610;DHT22;53468;48.276;14.416;2022-09-21T15:49:42;13.90;99.90
66610;DHT22;53468;48.276;14.416;2022-09-21T15:55:16;13.90;99.90
66610;DHT22;53468;48.276;14.416;2022-09-21T16:00:54;13.70;99.90
66610;DHT22;53468;48.276;14.416;2022-09-21T16:06:34;13.60;99.90
66610;DHT22;53468;48.276;14.416;2022-09-21T16:12:36;13.30;99.90
66610;DHT22;53468;48.276;14.416;2022-09-21T16:18:28;13.10;99.90
66610;DHT22;53468;48.276;14.416;2022-09-21T16:24:08;12.90;99.90
66610;DHT22;53468;48.276;14.416;2022-09-21T16:29:43;12.60;99.90
66610;DHT22;53468;48.276;14.416;2022-09-21T16:35:23;12.40;99.90
66610;DHT22;53468;48.276;14.416;2022-09-21T16:41:00;12.30;99.90
66610;DHT22;53468;48.276;14.416;2022-09-21T16:46:33;12.10;99.90
66610;DHT22;53468;48.276;14.416;2022-09-21T16:52:07;12.00;99.90
66610;DHT22;53468;48.276;14.416;2022-09-21T16:57:39;11.90;99.90
66610;DHT22;53468;48.276;14.416;2022-09-21T17:03:12;12.00;99.90
66610;DHT22;53468;48.276;14.416;2022-09-21T17:08:47;11.90;99.90
66610;DHT22;53468;48.276;14.416;2022-09-21T17:14:20;11.80;99.90
66610;DHT22;53468;48.276;14.416;2022-09-21T17:19:53;11.80;99.90
66610;DHT22;53468;48.276;14.416;2022-09-21T17:25:27;11.60;99.90
66610;DHT22;53468;48.276;14.416;2022-09-21T17:30:59;11.50;99.90
66610;DHT22;53468;48.276;14.416;2022-09-21T17:36:35;11.30;99.90
66610;DHT22;53468;48.276;14.416;2022-09-21T17:42:14;11.20;99.90
66610;DHT22;53468;48.276;14.416;2022-09-21T17:47:48;11.00;99.90
66610;DHT22;53468;48.276;14.416;2022-09-21T17:53:21;10.80;99.90
66610;DHT22;53468;48.276;14.416;2022-09-21T17:59:22;10.70;99.90
66610;DHT22;53468;48.276;14.416;2022-09-21T18:04:59;10.40;99.90
66610;DHT22;53468;48.276;14.416;2022-09-21T18:10:34;10.40;99.90
66610;DHT22;53468;48.276;14.416;2022-09-21T18:16:20;10.20;99.90
66610;DHT22;53468;48.276;14.416;2022-09-21T18:21:59;10.00;99.90
66610;DHT22;53468;48.276;14.416;2022-09-21T18:27:35;9.80;99.90
66610;DHT22;53468;48.276;14.416;2022-09-21T18:33:19;9.80;99.90
66610;DHT22;53468;48.276;14.416;2022-09-21T18:39:03;9.60;99.90
66610;DHT22;53468;48.276;14.416;2022-09-21T18:44:41;9.50;99.90
66610;DHT22;53468;48.276;14.416;2022-09-21T18:50:21;9.40;99.90
66610;DHT22;53468;48.276;14.416;2022-09-21T18:55:58;9.30;99.90
66610;DHT22;53468;48.276;14.416;2022-09-21T19:01:31;9.30;99.90
66610;DHT22;53468;48.276;14.416;2022-09-21T19:07:12;9.30;99.90
66610;DHT22;53468;48.276;14.416;2022-09-21T19:13:03;9.30;99.90
66610;DHT22;53468;48.276;14.416;2022-09-21T19:18:44;9.30;99.90
66610;DHT22;53468;48.276;14.416;2022-09-21T19:24:25;9.20;99.90
66610;DHT22;53468;48.276;14.416;2022-09-21T19:30:05;9.10;99.90
66610;DHT22;53468;48.276;14.416;2022-09-21T19:35:39;9.00;99.90
66610;DHT22;53468;48.276;14.416;2022-09-21T19:41:31;8.90;99.90
66610;DHT22;53468;48.276;14.416;2022-09-21T19:47:22;8.70;99.90
66610;DHT22;53468;48.276;14.416;2022-09-21T19:52:59;8.70;99.90
66610;DHT22;53468;48.276;14.416;2022-09-21T19:58:49;8.60;99.90
66610;DHT22;53468;48.276;14.416;2022-09-21T20:04:48;8.60;99.90
66610;DHT22;53468;48.276;14.416;2022-09-21T20:10:38;8.40;99.90
66610;DHT22;53468;48.276;14.416;2022-09-21T20:16:28;8.40;99.90
66610;DHT22;53468;48.276;14.416;2022-09-21T20:22:09;8.40;99.90
66610;DHT22;53468;48.276;14.416;2022-09-21T20:27:47;8.30;99.90
66610;DHT22;53468;48.276;14.416;2022-09-21T20:33:22;8.20;99.90
66610;DHT22;53468;48.276;14.416;2022-09-21T20:38:57;8.10;99.90
66610;DHT22;53468;48.276;14.416;2022-09-21T20:44:31;8.00;99.90
66610;DHT22;53468;48.276;14.416;2022-09-21T20:50:06;8.00;99.90
66610;DHT22;53468;48.276;14.416;2022-09-21T20:55:42;8.00;99.90
66610;DHT22;53468;48.276;14.416;2022-09-21T21:01:23;8.00;99.90
66610;DHT22;53468;48.276;14.416;2022-09-21T21:06:57;8.00;99.90
66610;DHT22;53468;48.276;14.416;2022-09-21T21:12:30;8.00;99.90
66610;DHT22;53468;48.276;14.416;2022-09-21T21:18:03;8.10;99.90
66610;DHT22;53468;48.276;14.416;2022-09-21T21:23:38;8.20;99.90
66610;DHT22;53468;48.276;14.416;2022-09-21T21:29:25;8.30;99.90
66610;DHT22;53468;48.276;14.416;2022-09-21T21:34:58;8.40;99.90
66610;DHT22;53468;48.276;14.416;2022-09-21T21:40:34;8.50;99.90
66610;DHT22;53468;48.276;14.416;2022-09-21T21:46:10;8.70;99.90
66610;DHT22;53468;48.276;14.416;2022-09-21T21:51:44;8.70;99.90
66610;DHT22;53468;48.276;14.416;2022-09-21T21:57:20;8.70;99.90
66610;DHT22;53468;48.276;14.416;2022-09-21T22:02:55;8.80;99.90
66610;DHT22;53468;48.276;14.416;2022-09-21T22:08:28;8.90;99.90
66610;DHT22;53468;48.276;14.416;2022-09-21T22:14:04;8.90;99.90
66610;DHT22;53468;48.276;14.416;2022-09-21T22:19:37;9.00;99.90
66610;DHT22;53468;48.276;14.416;2022-09-21T22:25:10;9.00;99.90
66610;DHT22;53468;48.276;14.416;2022-09-21T22:30:47;9.10;99.90
66610;DHT22;53468;48.276;14.416;2022-09-21T22:36:22;9.10;99.90
66610;DHT22;53468;48.276;14.416;2022-09-21T22:41:55;9.10;99.90
66610;DHT22;53468;48.276;14.416;2022-09-21T22:47:30;9.10;99.90
66610;DHT22;53468;48.276;14.416;2022-09-21T22:53:02;9.20;99.90
66610;DHT22;53468;48.276;14.416;2022-09-21T22:58:36;9.20;99.90
66610;DHT22;53468;48.276;14.416;2022-09-21T23:04:11;9.30;99.90
66610;DHT22;53468;48.276;14.416;2022-09-21T23:09:45;9.20;99.90
66610;DHT22;53468;48.276;14.416;2022-09-21T23:15:17;9.30;99.90
66610;DHT22;53468;48.276;14.416;2022-09-21T23:21:07;9.30;99.90
66610;DHT22;53468;48.276;14.416;2022-09-21T23:26:41;9.30;99.90
66610;DHT22;53468;48.276;14.416;2022-09-21T23:32:14;9.30;99.90
66610;DHT22;53468;48.276;14.416;2022-09-21T23:37:48;9.10;99.90
66610;DHT22;53468;48.276;14.416;2022-09-21T23:43:20;9.10;99.90
66610;DHT22;53468;48.276;14.416;2022-09-21T23:48:53;9.20;99.90
66610;DHT22;53468;48.276;14.416;2022-09-21T23:54:28;9.00;99.90
